Time;durP1;ratioP1;P1;durP2;ratioP2;P2;SDS_P1;SDS_P2;PMS_P1;PMS_P2;Temp;Humidity;BMP_temperature;BMP_pressure;BME280_temperature;BME280_humidity;BME280_pressure;Samples;Min_cycle;Max_cycle;Signal;HPM_P1;HPM_P2
2022/05/01 00:02:01;;;;;;;;;;;;;;;5.88;75.77;97817.92;109848;1250;59730;-68
2022/05/01 00:04:31;;;;;;;;;;;;;;;5.86;75.93;97820.96;109844;1249;59679;-69
2022/05/01 00:07:01;;;;;;;;;;;;;;;5.85;75.52;97819.27;109657;1249;70609;-69
2022/05/01 00:09:31;;;;;;;;;;;;;;;5.86;75.34;97819.42;109818;1250;67840;-68
2022/05/01 00:12:00;;;;;;;;;;;;;;;5.87;74.34;97824.41;109812;1250;68508;-67
2022/05/01 00:14:30;;;;;;;;;;;;;;;5.88;74.08;97829.36;109853;1250;59749;-67
2022/05/01 00:17:01;;;;;;;;;;;;;;;5.87;74.01;97828.02;109791;1250;59751;-68
2022/05/01 00:19:31;;;;;;;;;;;;;;;5.85;74.80;97829.13;109800;1250;70664;-69
2022/05/01 00:22:20;;;;;;;;;;;;;;;5.82;74.20;97827.76;109588;1251;68109;-67
2022/05/01 00:24:50;;;;;;;;;;;;;;;5.79;74.06;97832.75;109894;1250;68645;-67
2022/05/01 00:27:20;;;;;;;;;;;;;;;5.74;73.84;97829.69;109754;1251;59682;-67
2022/05/01 00:29:50;;;;;;;;;;;;;;;5.70;73.19;97833.68;109707;1250;59686;-67
2022/05/01 00:32:20;;;;;;;;;;;;;;;5.67;72.42;97833.45;109583;1250;70759;-65
2022/05/01 00:37:54;;;;;;;;;;;;;;;5.69;71.75;97831.83;109480;1253;69410;-68
2022/05/01 00:40:24;;;;;;;;;;;;;;;5.72;71.99;97836.02;109743;1250;59696;-67
2022/05/01 00:42:54;;;;;;;;;;;;;;;5.80;71.85;97836.34;109888;1250;59715;-66
2022/05/01 00:45:24;;;;;;;;;;;;;;;5.86;73.91;97835.84;109799;1249;71384;-69
2022/05/01 00:47:55;;;;;;;;;;;;;;;5.84;72.44;97832.86;109861;1250;68245;-67
2022/05/01 00:50:24;;;;;;;;;;;;;;;5.82;72.14;97836.56;109909;1249;69407;-67
2022/05/01 00:52:55;;;;;;;;;;;;;;;5.79;72.17;97833.76;109863;1250;59795;-69
2022/05/01 00:55:24;;;;;;;;;;;;;;;5.76;71.92;97832.88;109843;1250;59735;-68
2022/05/01 00:57:55;;;;;;;;;;;;;;;5.72;71.95;97831.82;109871;1249;71528;-67
2022/05/01 01:00:24;;;;;;;;;;;;;;;5.70;72.47;97834.70;109862;1250;68773;-64
2022/05/01 01:02:54;;;;;;;;;;;;;;;5.68;72.04;97829.95;109860;1250;67650;-68
2022/05/01 01:05:24;;;;;;;;;;;;;;;5.68;72.18;97828.77;109866;1250;59777;-67
2022/05/01 01:07:54;;;;;;;;;;;;;;;5.69;71.11;97826.98;109697;1249;59721;-66
2022/05/01 01:10:23;;;;;;;;;;;;;;;5.70;70.94;97830.89;109814;1250;71366;-66
2022/05/01 01:12:53;;;;;;;;;;;;;;;5.72;71.29;97827.51;109873;1250;67657;-67
2022/05/01 01:15:25;;;;;;;;;;;;;;;5.77;71.51;97827.80;109604;1250;69467;-66
2022/05/01 01:17:55;;;;;;;;;;;;;;;5.77;70.64;97825.18;109667;1250;59701;-65
2022/05/01 01:20:26;;;;;;;;;;;;;;;5.77;71.15;97829.02;109633;1250;59770;-64
2022/05/01 01:22:56;;;;;;;;;;;;;;;5.74;74.83;97827.09;109650;1250;71710;-66
2022/05/01 01:25:32;;;;;;;;;;;;;;;5.66;73.72;97829.89;109839;1247;68817;-64
2022/05/01 01:28:02;;;;;;;;;;;;;;;5.57;74.56;97830.63;109872;1250;69526;-64
2022/05/01 01:33:26;;;;;;;;;;;;;;;5.41;74.44;97826.86;109742;1250;59720;-68
2022/05/01 01:35:58;;;;;;;;;;;;;;;5.35;77.12;97829.21;109873;1250;71596;-65
2022/05/01 01:38:29;;;;;;;;;;;;;;;5.29;76.15;97830.36;109725;1250;68621;-67
2022/05/01 01:41:04;;;;;;;;;;;;;;;5.25;76.88;97834.53;109702;1250;68671;-68
2022/05/01 01:43:36;;;;;;;;;;;;;;;5.19;75.42;97834.08;109857;1249;59760;-68
2022/05/01 01:46:06;;;;;;;;;;;;;;;5.16;76.21;97838.05;109626;1250;59702;-68
2022/05/01 01:48:36;;;;;;;;;;;;;;;5.11;76.76;97838.75;109711;1250;71205;-69
2022/05/01 01:51:06;;;;;;;;;;;;;;;5.06;76.51;97834.66;109811;1250;67106;-68
2022/05/01 01:53:36;;;;;;;;;;;;;;;5.03;78.50;97838.73;109775;1250;68824;-68
2022/05/01 01:56:10;;;;;;;;;;;;;;;5.02;78.49;97837.42;109768;1250;60101;-68
2022/05/01 01:58:41;;;;;;;;;;;;;;;5.00;78.58;97833.54;109781;1250;59761;-67
2022/05/01 02:01:11;;;;;;;;;;;;;;;4.99;78.30;97839.30;109819;1250;71441;-68
2022/05/01 02:03:40;;;;;;;;;;;;;;;4.97;78.22;97840.39;109860;1250;66988;-70
2022/05/01 02:06:10;;;;;;;;;;;;;;;4.95;77.82;97841.20;109680;1250;68634;-70
2022/05/01 02:08:42;;;;;;;;;;;;;;;4.92;78.49;97844.94;109975;1250;59874;-67
2022/05/01 02:11:12;;;;;;;;;;;;;;;4.88;78.32;97850.63;109922;1249;59767;-63
2022/05/01 02:13:42;;;;;;;;;;;;;;;4.84;77.98;97852.17;109608;1252;70728;-65
2022/05/01 02:16:12;;;;;;;;;;;;;;;4.81;77.12;97852.83;109813;1249;67467;-70
2022/05/01 02:18:43;;;;;;;;;;;;;;;4.79;78.73;97859.66;109750;1250;68685;-65
2022/05/01 02:24:04;;;;;;;;;;;;;;;4.70;77.65;97860.73;109863;1249;60145;-66
2022/05/01 02:26:35;;;;;;;;;;;;;;;4.66;77.86;97865.41;109847;1250;71343;-67
2022/05/01 02:29:09;;;;;;;;;;;;;;;4.62;79.21;97861.41;109785;1250;67747;-67
2022/05/01 02:31:41;;;;;;;;;;;;;;;4.60;79.32;97862.17;109741;1249;68435;-68
2022/05/01 02:34:11;;;;;;;;;;;;;;;4.59;80.57;97863.77;109789;1250;59750;-67
2022/05/01 02:36:41;;;;;;;;;;;;;;;4.57;80.67;97862.98;109854;1249;59743;-68
2022/05/01 02:39:11;;;;;;;;;;;;;;;4.54;81.17;97864.13;109720;1250;70539;-69
2022/05/01 02:41:43;;;;;;;;;;;;;;;4.52;80.34;97864.04;109614;1251;68585;-67
2022/05/01 02:44:16;;;;;;;;;;;;;;;4.49;80.37;97863.48;109570;1252;69474;-67
2022/05/01 02:46:47;;;;;;;;;;;;;;;4.45;80.93;97861.27;109575;1253;59683;-69
2022/05/01 02:49:17;;;;;;;;;;;;;;;4.41;81.15;97862.63;109742;1249;59691;-69
2022/05/01 02:51:47;;;;;;;;;;;;;;;4.38;81.56;97859.64;109810;1250;71526;-70
2022/05/01 02:54:17;;;;;;;;;;;;;;;4.35;82.08;97865.29;109702;1251;67767;-67
2022/05/01 02:56:49;;;;;;;;;;;;;;;4.31;80.71;97865.27;109596;1250;68689;-69
2022/05/01 02:59:20;;;;;;;;;;;;;;;4.28;79.69;97865.23;109631;1250;59682;-68
2022/05/01 03:01:51;;;;;;;;;;;;;;;4.25;79.93;97865.68;109708;1249;59694;-66
2022/05/01 03:04:22;;;;;;;;;;;;;;;4.23;81.60;97866.63;109737;1249;70596;-68
2022/05/01 03:06:52;;;;;;;;;;;;;;;4.20;81.38;97867.59;109631;1253;68548;-66
2022/05/01 03:09:22;;;;;;;;;;;;;;;4.19;81.20;97866.09;109823;1250;68709;-67
2022/05/01 03:11:52;;;;;;;;;;;;;;;4.19;81.14;97866.79;109845;1250;59707;-67
2022/05/01 03:14:22;;;;;;;;;;;;;;;4.16;79.43;97869.48;109767;1250;59683;-67
2022/05/01 03:16:53;;;;;;;;;;;;;;;4.16;76.99;97869.34;109741;1251;71565;-68
2022/05/01 03:22:13;;;;;;;;;;;;;;;4.17;76.70;97869.66;109691;1250;68681;-68
2022/05/01 03:24:43;;;;;;;;;;;;;;;4.17;76.83;97865.16;109663;1250;59714;-68
2022/05/01 03:27:13;;;;;;;;;;;;;;;4.17;80.37;97864.98;109769;1250;59644;-68
2022/05/01 03:30:15;;;;;;;;;;;;;;;4.16;80.27;97863.45;109690;1251;71515;-67
2022/05/01 03:32:33;;;;;;;;;;;;;;;4.13;78.73;97862.88;109581;1252;68437;-67
2022/05/01 03:35:03;;;;;;;;;;;;;;;4.13;81.22;97862.40;109695;1251;69422;-67
2022/05/01 03:37:33;;;;;;;;;;;;;;;4.12;81.18;97861.73;109700;1251;59835;-68
2022/05/01 03:40:03;;;;;;;;;;;;;;;4.11;83.19;97857.80;109723;1251;59784;-66
2022/05/01 03:42:33;;;;;;;;;;;;;;;4.09;83.65;97855.27;109704;1250;71617;-67
2022/05/01 03:45:03;;;;;;;;;;;;;;;4.09;83.97;97853.91;109735;1249;68578;-67
2022/05/01 03:47:33;;;;;;;;;;;;;;;4.09;82.37;97857.85;109743;1250;68367;-64
2022/05/01 03:50:03;;;;;;;;;;;;;;;4.11;81.53;97856.58;109553;1251;59717;-70
2022/05/01 03:52:35;;;;;;;;;;;;;;;4.13;81.90;97860.83;109665;1251;59724;-68
2022/05/01 03:55:05;;;;;;;;;;;;;;;4.14;83.45;97858.70;109782;1250;71517;-68
2022/05/01 03:57:37;;;;;;;;;;;;;;;4.17;83.54;97861.01;109610;1250;68051;-68
2022/05/01 04:00:10;;;;;;;;;;;;;;;4.20;82.39;97863.13;109717;1251;69455;-65
2022/05/01 04:02:41;;;;;;;;;;;;;;;4.25;82.62;97862.25;109685;1250;59707;-66
2022/05/01 04:05:12;;;;;;;;;;;;;;;4.32;82.73;97863.16;109816;1249;59766;-68
2022/05/01 04:07:42;;;;;;;;;;;;;;;4.43;83.31;97865.47;109845;1250;71741;-68
2022/05/01 04:10:12;;;;;;;;;;;;;;;4.53;82.22;97863.34;109644;1250;67469;-69
2022/05/01 04:12:42;;;;;;;;;;;;;;;4.61;81.28;97867.13;109766;1249;69233;-65
2022/05/01 04:15:14;;;;;;;;;;;;;;;4.75;81.18;97866.02;109691;1251;59722;-65
2022/05/01 04:17:44;;;;;;;;;;;;;;;4.86;80.95;97861.08;109614;1250;59742;-66
2022/05/01 04:20:15;;;;;;;;;;;;;;;4.98;80.67;97862.09;109535;1251;71570;-67
2022/05/01 04:22:45;;;;;;;;;;;;;;;5.11;80.38;97865.02;109739;1249;67708;-67
2022/05/01 04:25:19;;;;;;;;;;;;;;;5.23;80.24;97862.25;109624;1252;68514;-64
2022/05/01 04:27:51;;;;;;;;;;;;;;;5.40;79.97;97861.48;109527;1252;59803;-65
2022/05/01 04:30:22;;;;;;;;;;;;;;;5.62;79.69;97862.36;109635;1252;59704;-66
2022/05/01 04:32:53;;;;;;;;;;;;;;;5.84;78.91;97867.95;109768;1249;70230;-68
2022/05/01 04:35:33;;;;;;;;;;;;;;;6.01;77.94;97869.10;109797;1250;67035;-68
2022/05/01 04:38:03;;;;;;;;;;;;;;;6.16;77.49;97872.03;109764;1250;68488;-64
2022/05/01 04:40:53;;;;;;;;;;;;;;;6.27;76.92;97871.13;109752;1250;59706;-69
2022/05/01 04:43:23;;;;;;;;;;;;;;;6.38;76.51;97878.21;109719;1249;59690;-65
2022/05/01 04:45:54;;;;;;;;;;;;;;;6.40;75.83;97877.77;109769;1250;70791;-67
2022/05/01 04:48:24;;;;;;;;;;;;;;;6.37;75.53;97881.03;109771;1250;68517;-68
2022/05/01 04:50:53;;;;;;;;;;;;;;;6.28;75.68;97881.32;109365;1253;68032;-66
2022/05/01 04:53:23;;;;;;;;;;;;;;;6.21;75.85;97886.30;109541;1251;59732;-67
2022/05/01 04:55:52;;;;;;;;;;;;;;;6.18;76.09;97885.78;109662;1251;59648;-68
2022/05/01 04:58:21;;;;;;;;;;;;;;;6.17;75.58;97887.23;109779;1251;72072;-69
2022/05/01 05:00:50;;;;;;;;;;;;;;;6.12;75.51;97884.12;109725;1250;67810;-65
2022/05/01 05:03:19;;;;;;;;;;;;;;;6.15;75.24;97882.96;109711;1250;69802;-69
2022/05/01 05:05:49;;;;;;;;;;;;;;;6.23;75.91;97881.39;109709;1250;59774;-65
2022/05/01 05:11:06;;;;;;;;;;;;;;;6.59;74.75;97885.70;109776;1249;71637;-67
2022/05/01 05:13:35;;;;;;;;;;;;;;;6.76;73.67;97884.71;109749;1250;68663;-68
2022/05/01 05:16:12;;;;;;;;;;;;;;;6.93;73.84;97884.35;109718;1250;69521;-67
2022/05/01 05:18:42;;;;;;;;;;;;;;;7.14;73.22;97880.14;109597;1251;59759;-66
2022/05/01 05:21:11;;;;;;;;;;;;;;;7.46;72.17;97880.54;109744;1250;59722;-70
2022/05/01 05:23:40;;;;;;;;;;;;;;;7.86;71.34;97882.92;109583;1251;70836;-67
2022/05/01 05:26:09;;;;;;;;;;;;;;;8.33;70.48;97886.23;109545;1252;67863;-65
2022/05/01 05:28:38;;;;;;;;;;;;;;;8.82;69.76;97885.90;109680;1251;69176;-68
2022/05/01 05:31:07;;;;;;;;;;;;;;;9.39;67.92;97882.32;109593;1252;59738;-66
2022/05/01 05:33:37;;;;;;;;;;;;;;;9.91;65.20;97882.63;109729;1250;59719;-69
2022/05/01 05:36:06;;;;;;;;;;;;;;;10.41;64.32;97882.24;109704;1249;70039;-69
2022/05/01 05:38:37;;;;;;;;;;;;;;;10.93;60.38;97883.87;109610;1250;68393;-70
2022/05/01 05:41:07;;;;;;;;;;;;;;;11.50;57.69;97882.13;109768;1250;69476;-68
2022/05/01 05:43:36;;;;;;;;;;;;;;;12.02;56.07;97883.39;109704;1250;59778;-69
2022/05/01 05:46:05;;;;;;;;;;;;;;;12.30;53.32;97884.55;109775;1250;59777;-68
2022/05/01 05:48:37;;;;;;;;;;;;;;;12.77;52.88;97879.89;109864;1250;70875;-69
2022/05/01 05:51:06;;;;;;;;;;;;;;;13.15;52.94;97881.56;109775;1250;67821;-69
2022/05/01 05:53:35;;;;;;;;;;;;;;;13.59;54.42;97879.60;109808;1250;69426;-70
2022/05/01 05:56:05;;;;;;;;;;;;;;;13.99;51.36;97876.10;110010;1250;59709;-66
2022/05/01 05:58:34;;;;;;;;;;;;;;;14.41;52.05;97880.64;109755;1249;59697;-68
2022/05/01 06:01:04;;;;;;;;;;;;;;;14.91;53.11;97878.52;109497;1254;71690;-69
2022/05/01 06:03:33;;;;;;;;;;;;;;;15.25;49.07;97876.71;109653;1250;66941;-69
2022/05/01 06:06:03;;;;;;;;;;;;;;;15.41;50.19;97875.37;109788;1250;69472;-71
2022/05/01 06:08:32;;;;;;;;;;;;;;;15.68;48.66;97868.47;109928;1250;59783;-68
2022/05/01 06:11:02;;;;;;;;;;;;;;;15.79;46.36;97868.09;109725;1249;59768;-71
2022/05/01 06:13:31;;;;;;;;;;;;;;;15.83;46.13;97864.44;109807;1250;71463;-71
2022/05/01 06:16:00;;;;;;;;;;;;;;;15.84;45.14;97866.94;109785;1250;68193;-70
2022/05/01 06:18:30;;;;;;;;;;;;;;;15.86;45.44;97869.23;109698;1250;69246;-69
2022/05/01 06:20:58;;;;;;;;;;;;;;;15.94;45.32;97871.19;109845;1250;59701;-70
2022/05/01 06:23:27;;;;;;;;;;;;;;;16.05;44.72;97868.80;109868;1250;59667;-69
2022/05/01 06:25:58;;;;;;;;;;;;;;;16.20;44.35;97872.37;109606;1250;71839;-65
2022/05/01 06:28:28;;;;;;;;;;;;;;;16.37;44.24;97878.64;109709;1250;67720;-69
2022/05/01 06:30:58;;;;;;;;;;;;;;;16.51;44.00;97874.89;109688;1251;69449;-69
2022/05/01 06:33:28;;;;;;;;;;;;;;;16.71;43.19;97876.98;109860;1249;59758;-68
2022/05/01 06:35:57;;;;;;;;;;;;;;;16.85;42.29;97876.10;109711;1250;60062;-70
2022/05/01 06:38:26;;;;;;;;;;;;;;;16.94;41.56;97879.63;109804;1250;71650;-69
2022/05/01 06:40:55;;;;;;;;;;;;;;;17.20;42.18;97873.76;109738;1250;68338;-69
2022/05/01 06:43:27;;;;;;;;;;;;;;;17.51;41.14;97871.27;109705;1250;68556;-71
2022/05/01 06:45:56;;;;;;;;;;;;;;;17.83;40.08;97866.61;109966;1250;59696;-69
2022/05/01 06:48:25;;;;;;;;;;;;;;;17.94;39.47;97868.53;109712;1251;59757;-69
2022/05/01 06:50:54;;;;;;;;;;;;;;;18.03;39.04;97870.70;109823;1250;69875;-69
2022/05/01 06:53:23;;;;;;;;;;;;;;;18.09;38.55;97873.31;109554;1251;68994;-70
2022/05/01 06:55:54;;;;;;;;;;;;;;;18.19;38.10;97872.36;109723;1250;68678;-70
2022/05/01 06:58:24;;;;;;;;;;;;;;;18.26;37.22;97872.32;109785;1250;59706;-68
2022/05/01 07:00:54;;;;;;;;;;;;;;;18.40;37.91;97875.10;109857;1250;59757;-70
2022/05/01 07:03:23;;;;;;;;;;;;;;;18.37;37.21;97874.67;109750;1250;71685;-69
2022/05/01 07:06:00;;;;;;;;;;;;;;;18.46;37.23;97872.00;109830;1250;67947;-71
2022/05/01 07:08:29;;;;;;;;;;;;;;;18.52;36.64;97869.25;109462;1251;69455;-69
2022/05/01 07:10:59;;;;;;;;;;;;;;;18.65;36.99;97866.44;109768;1250;59774;-69
2022/05/01 07:13:27;;;;;;;;;;;;;;;18.88;36.39;97865.37;109852;1250;59657;-70
2022/05/01 07:15:57;;;;;;;;;;;;;;;19.06;36.38;97868.04;109801;1250;71684;-70
2022/05/01 07:18:27;;;;;;;;;;;;;;;19.23;35.89;97862.77;109803;1250;68322;-70
2022/05/01 07:20:56;;;;;;;;;;;;;;;19.33;35.81;97868.78;109554;1253;69372;-69
2022/05/01 07:23:42;;;;;;;;;;;;;;;19.53;35.68;97865.88;109617;1253;59716;-69
2022/05/01 07:26:11;;;;;;;;;;;;;;;19.54;35.27;97864.02;109645;1253;59687;-67
2022/05/01 07:28:40;;;;;;;;;;;;;;;19.73;35.60;97868.30;109790;1252;71386;-69
2022/05/01 07:31:09;;;;;;;;;;;;;;;19.84;34.85;97865.17;109864;1250;67964;-71
2022/05/01 07:33:40;;;;;;;;;;;;;;;19.93;35.04;97864.81;109892;1249;68846;-68
2022/05/01 07:36:09;;;;;;;;;;;;;;;20.09;34.03;97866.98;109779;1250;59738;-69
2022/05/01 07:38:37;;;;;;;;;;;;;;;20.15;34.27;97869.23;109713;1252;59712;-69
2022/05/01 07:41:07;;;;;;;;;;;;;;;20.22;33.77;97864.38;109642;1250;70795;-70
2022/05/01 07:43:36;;;;;;;;;;;;;;;20.41;33.89;97865.42;109838;1250;69043;-69
2022/05/01 07:46:05;;;;;;;;;;;;;;;20.61;33.03;97863.90;109612;1250;67774;-69
2022/05/01 07:48:34;;;;;;;;;;;;;;;20.68;33.33;97859.95;109816;1250;59813;-68
2022/05/01 07:51:03;;;;;;;;;;;;;;;20.77;33.11;97862.73;109525;1252;59697;-67
2022/05/01 07:53:33;;;;;;;;;;;;;;;20.90;32.40;97865.03;109699;1250;71569;-69
2022/05/01 07:56:02;;;;;;;;;;;;;;;20.94;32.15;97864.64;109769;1250;68589;-70
2022/05/01 07:58:31;;;;;;;;;;;;;;;20.91;32.50;97855.93;109556;1252;68668;-70
2022/05/01 08:01:03;;;;;;;;;;;;;;;20.96;31.67;97851.28;109652;1251;59717;-70
2022/05/01 08:06:22;;;;;;;;;;;;;;;20.76;32.31;97854.09;109645;1252;70807;-68
2022/05/01 08:08:51;;;;;;;;;;;;;;;20.89;32.10;97853.98;109669;1250;67859;-70
2022/05/01 08:11:20;;;;;;;;;;;;;;;20.77;32.53;97851.17;109596;1249;68139;-69
2022/05/01 08:13:49;;;;;;;;;;;;;;;20.93;32.34;97847.36;109764;1250;59853;-70
2022/05/01 08:16:18;;;;;;;;;;;;;;;20.83;32.29;97844.15;109688;1250;59679;-72
2022/05/01 08:21:36;;;;;;;;;;;;;;;21.23;31.97;97836.07;110049;1250;68868;-69
2022/05/01 08:24:05;;;;;;;;;;;;;;;21.43;31.11;97833.42;109965;1250;69128;-66
2022/05/01 08:26:34;;;;;;;;;;;;;;;21.29;30.71;97831.55;109709;1250;59668;-70
2022/05/01 08:29:04;;;;;;;;;;;;;;;21.63;31.71;97822.75;109815;1250;59681;-66
2022/05/01 08:31:33;;;;;;;;;;;;;;;21.96;30.69;97824.61;109801;1250;71026;-68
2022/05/01 08:34:03;;;;;;;;;;;;;;;21.94;29.26;97822.67;109938;1250;68477;-70
2022/05/01 08:36:32;;;;;;;;;;;;;;;21.97;30.08;97819.49;109766;1250;69380;-69
2022/05/01 08:39:02;;;;;;;;;;;;;;;21.96;29.59;97816.03;109765;1249;60204;-66
2022/05/01 08:41:32;;;;;;;;;;;;;;;21.74;28.83;97811.64;109693;1250;59699;-69
2022/05/01 08:44:01;;;;;;;;;;;;;;;22.31;29.97;97813.17;109606;1253;70789;-67
2022/05/01 08:46:31;;;;;;;;;;;;;;;22.73;29.59;97814.98;109586;1252;67879;-69
2022/05/01 08:49:01;;;;;;;;;;;;;;;22.99;29.62;97813.66;109600;1252;69281;-68
2022/05/01 08:51:33;;;;;;;;;;;;;;;23.06;27.59;97809.21;109729;1252;59774;-68
2022/05/01 08:54:04;;;;;;;;;;;;;;;23.09;28.24;97808.87;109473;1252;59815;-69
2022/05/01 08:56:34;;;;;;;;;;;;;;;23.06;27.56;97803.90;109564;1251;71615;-70
2022/05/01 08:59:07;;;;;;;;;;;;;;;22.94;27.22;97801.77;109786;1252;68605;-70
2022/05/01 09:01:36;;;;;;;;;;;;;;;23.22;27.21;97803.67;109758;1252;68673;-71
2022/05/01 09:04:06;;;;;;;;;;;;;;;23.39;27.49;97796.81;109800;1252;59727;-69
2022/05/01 09:06:36;;;;;;;;;;;;;;;24.00;26.38;97795.19;109180;1253;755878;-69
2022/05/01 09:09:05;;;;;;;;;;;;;;;24.43;26.08;97797.48;109757;1252;71299;-69
2022/05/01 09:14:24;;;;;;;;;;;;;;;24.63;24.14;97799.95;109784;1252;68501;-71
2022/05/01 09:17:08;;;;;;;;;;;;;;;24.41;23.69;97797.44;109704;1252;59791;-71
2022/05/01 09:19:43;;;;;;;;;;;;;;;24.61;24.71;97792.57;109929;1250;59672;-72
2022/05/01 09:22:13;;;;;;;;;;;;;;;25.20;24.41;97791.44;109689;1252;70824;-69
2022/05/01 09:24:42;;;;;;;;;;;;;;;25.22;23.16;97780.31;109894;1250;68572;-69
2022/05/01 09:27:43;;;;;;;;;;;;;;;25.16;23.79;97783.23;109668;1251;68760;-71
2022/05/01 09:30:15;;;;;;;;;;;;;;;25.11;23.16;97780.44;109235;1257;59844;-68
2022/05/01 09:32:44;;;;;;;;;;;;;;;25.11;22.26;97782.94;109385;1257;59738;-71
2022/05/01 09:35:27;;;;;;;;;;;;;;;24.46;23.04;97784.17;109377;1257;70790;-68
2022/05/01 09:38:14;;;;;;;;;;;;;;;24.34;22.89;97781.96;109377;1256;68950;-69
2022/05/01 09:40:47;;;;;;;;;;;;;;;24.04;22.97;97771.98;109298;1257;68655;-72
2022/05/01 09:43:34;;;;;;;;;;;;;;;23.38;22.79;97765.20;109421;1256;59783;-71
2022/05/01 09:46:33;;;;;;;;;;;;;;;22.83;24.35;97765.09;109220;1256;59695;-68
2022/05/01 09:49:04;;;;;;;;;;;;;;;22.88;24.41;97764.80;108732;1262;71696;-71
2022/05/01 09:51:34;;;;;;;;;;;;;;;22.99;24.19;97758.30;108752;1264;68659;-68
2022/05/01 09:54:03;;;;;;;;;;;;;;;23.19;25.13;97758.32;108566;1263;69504;-70
2022/05/01 09:56:48;;;;;;;;;;;;;;;22.98;24.29;97751.89;108606;1264;59798;-69
2022/05/01 09:59:20;;;;;;;;;;;;;;;23.16;24.52;97750.94;108679;1262;60081;-71
2022/05/01 10:01:55;;;;;;;;;;;;;;;23.45;24.08;97752.14;108598;1264;71623;-69
2022/05/01 10:04:25;;;;;;;;;;;;;;;23.31;24.22;97751.85;108612;1262;67888;-68
2022/05/01 10:06:55;;;;;;;;;;;;;;;23.52;24.73;97746.35;109014;1257;68929;-69
2022/05/01 10:09:28;;;;;;;;;;;;;;;23.77;24.18;97751.66;109187;1257;59854;-70
2022/05/01 10:11:58;;;;;;;;;;;;;;;24.21;23.77;97746.25;109210;1258;59697;-69
2022/05/01 10:14:28;;;;;;;;;;;;;;;24.82;23.19;97739.55;109127;1257;71500;-68
2022/05/01 10:16:57;;;;;;;;;;;;;;;23.80;23.56;97734.63;109162;1257;67837;-70
2022/05/01 10:19:26;;;;;;;;;;;;;;;24.22;23.34;97736.52;109189;1257;69003;-70
2022/05/01 10:21:56;;;;;;;;;;;;;;;24.80;22.67;97728.27;109153;1257;59710;-70
2022/05/01 10:24:26;;;;;;;;;;;;;;;25.24;22.14;97730.16;109196;1257;60183;-70
2022/05/01 10:27:14;;;;;;;;;;;;;;;25.22;21.72;97728.61;109825;1252;71564;-71
2022/05/01 10:32:51;;;;;;;;;;;;;;;23.52;22.05;97727.80;109741;1252;69381;-70
2022/05/01 10:35:45;;;;;;;;;;;;;;;23.68;22.68;97725.02;109921;1250;59763;-71
2022/05/01 10:38:17;;;;;;;;;;;;;;;23.75;22.19;97731.27;109898;1249;59713;-70
2022/05/01 10:40:51;;;;;;;;;;;;;;;23.84;22.38;97731.79;109853;1251;71557;-68
2022/05/01 10:43:26;;;;;;;;;;;;;;;24.20;22.74;97729.71;109807;1251;68448;-68
2022/05/01 10:45:56;;;;;;;;;;;;;;;24.54;22.36;97726.00;109523;1253;69436;-69
2022/05/01 10:48:39;;;;;;;;;;;;;;;24.77;20.95;97717.73;109793;1250;59675;-70
2022/05/01 10:51:26;;;;;;;;;;;;;;;25.05;21.74;97717.14;109871;1251;59730;-70
2022/05/01 10:54:28;;;;;;;;;;;;;;;25.65;21.99;97724.62;109871;1250;70945;-69
2022/05/01 10:57:08;;;;;;;;;;;;;;;26.08;21.35;97717.04;109278;1257;68130;-71
2022/05/01 10:59:39;;;;;;;;;;;;;;;26.28;20.85;97714.64;109325;1257;69413;-71
2022/05/01 11:02:22;;;;;;;;;;;;;;;26.50;20.80;97715.39;109276;1256;59786;-70
2022/05/01 11:04:53;;;;;;;;;;;;;;;26.86;20.53;97705.20;109455;1256;59723;-68
2022/05/01 11:07:22;;;;;;;;;;;;;;;27.26;18.82;97700.94;109245;1257;71026;-68
2022/05/01 11:09:52;;;;;;;;;;;;;;;27.36;18.88;97699.15;109271;1257;67939;-69
2022/05/01 11:12:22;;;;;;;;;;;;;;;27.35;18.95;97702.20;109233;1257;70118;-71
2022/05/01 11:14:52;;;;;;;;;;;;;;;27.28;18.27;97694.50;109448;1256;59777;-70
2022/05/01 11:17:36;;;;;;;;;;;;;;;27.15;18.81;97691.61;109260;1258;59806;-69
2022/05/01 11:20:08;;;;;;;;;;;;;;;26.86;18.80;97691.46;109172;1257;70751;-69
2022/05/01 11:22:37;;;;;;;;;;;;;;;26.72;19.55;97689.41;109215;1257;68699;-71
2022/05/01 11:25:13;;;;;;;;;;;;;;;26.65;19.54;97685.05;109333;1257;69483;-71
2022/05/01 11:27:48;;;;;;;;;;;;;;;26.83;18.62;97692.90;109317;1257;59730;-70
2022/05/01 11:30:26;;;;;;;;;;;;;;;26.24;18.92;97686.39;109251;1256;59746;-69
2022/05/01 11:33:00;;;;;;;;;;;;;;;26.10;19.20;97686.93;109610;1252;72184;-69
2022/05/01 11:35:48;;;;;;;;;;;;;;;25.59;19.98;97687.64;109849;1250;67149;-71
2022/05/01 11:38:16;;;;;;;;;;;;;;;25.08;20.56;97684.06;109859;1250;68743;-68
2022/05/01 11:41:00;;;;;;;;;;;;;;;25.29;20.52;97681.38;109827;1250;59723;-69
2022/05/01 11:43:30;;;;;;;;;;;;;;;25.01;20.31;97680.91;109777;1251;59710;-69
2022/05/01 11:46:01;;;;;;;;;;;;;;;24.18;21.04;97680.80;109696;1251;70832;-68
2022/05/01 11:48:31;;;;;;;;;;;;;;;23.80;22.51;97679.73;109810;1250;68683;-71
2022/05/01 11:51:00;;;;;;;;;;;;;;;23.50;21.92;97677.34;109968;1250;69428;-68
2022/05/01 11:53:30;;;;;;;;;;;;;;;23.74;21.83;97674.80;109867;1250;59668;-68
2022/05/01 12:04:34;;;;;;;;;;;;;;;23.44;21.77;97660.52;109661;1251;68751;-68
2022/05/01 12:07:05;;;;;;;;;;;;;;;23.20;22.21;97661.25;109830;1250;59758;-71
2022/05/01 12:09:35;;;;;;;;;;;;;;;22.93;22.09;97657.82;109998;1251;59691;-70
2022/05/01 12:12:09;;;;;;;;;;;;;;;22.60;22.12;97649.08;109774;1253;71583;-70
2022/05/01 12:14:39;;;;;;;;;;;;;;;22.27;22.59;97646.59;109807;1249;68533;-71
2022/05/01 12:17:13;;;;;;;;;;;;;;;21.98;22.82;97641.92;109824;1250;68634;-69
2022/05/01 12:19:44;;;;;;;;;;;;;;;21.71;23.86;97641.65;109819;1250;59760;-69
2022/05/01 12:22:15;;;;;;;;;;;;;;;21.68;24.05;97638.52;109776;1250;59696;-70
2022/05/01 12:24:45;;;;;;;;;;;;;;;21.64;24.92;97636.67;109856;1251;70829;-69
2022/05/01 12:27:16;;;;;;;;;;;;;;;21.63;26.20;97636.98;109892;1250;67900;-70
2022/05/01 12:29:49;;;;;;;;;;;;;;;21.73;24.87;97634.06;109795;1250;68674;-69
2022/05/01 12:32:18;;;;;;;;;;;;;;;21.55;24.21;97632.11;109822;1250;59767;-73
2022/05/01 12:34:48;;;;;;;;;;;;;;;21.44;24.67;97630.58;109911;1249;59689;-71
2022/05/01 12:37:39;;;;;;;;;;;;;;;21.42;24.76;97631.25;109851;1250;70836;-70
2022/05/01 12:40:10;;;;;;;;;;;;;;;21.33;24.49;97625.95;109844;1251;67871;-69
2022/05/01 12:45:53;;;;;;;;;;;;;;;21.34;25.24;97614.84;109932;1250;59754;-68
2022/05/01 12:48:22;;;;;;;;;;;;;;;21.26;26.42;97612.59;109909;1251;59726;-69
2022/05/01 12:50:52;;;;;;;;;;;;;;;21.47;25.93;97606.36;109791;1250;72137;-68
2022/05/01 12:53:28;;;;;;;;;;;;;;;21.56;25.61;97607.41;109892;1251;68602;-69
2022/05/01 12:56:01;;;;;;;;;;;;;;;21.68;25.66;97605.83;109669;1251;68278;-69
2022/05/01 12:58:33;;;;;;;;;;;;;;;21.79;24.86;97600.52;109810;1251;59760;-69
2022/05/01 13:01:05;;;;;;;;;;;;;;;21.69;24.16;97594.95;109991;1250;59678;-70
2022/05/01 13:03:38;;;;;;;;;;;;;;;21.92;24.61;97587.41;109947;1251;70768;-68
2022/05/01 13:06:11;;;;;;;;;;;;;;;22.15;24.04;97587.08;110027;1250;68288;-71
2022/05/01 13:08:41;;;;;;;;;;;;;;;22.39;24.02;97579.70;109854;1250;69420;-71
2022/05/01 13:11:21;;;;;;;;;;;;;;;22.32;23.48;97582.23;109973;1250;59704;-70
2022/05/01 13:13:59;;;;;;;;;;;;;;;22.39;23.77;97580.56;109852;1249;59952;-70
2022/05/01 13:16:30;;;;;;;;;;;;;;;22.64;23.72;97579.14;109911;1250;70769;-68
2022/05/01 13:19:09;;;;;;;;;;;;;;;23.06;23.75;97579.42;109832;1251;68704;-69
2022/05/01 13:21:46;;;;;;;;;;;;;;;23.52;23.77;97574.02;109595;1250;69184;-69
2022/05/01 13:24:16;;;;;;;;;;;;;;;23.70;23.33;97571.95;109732;1251;59728;-69
2022/05/01 13:26:45;;;;;;;;;;;;;;;23.60;22.46;97574.06;109790;1251;59670;-69
2022/05/01 13:29:14;;;;;;;;;;;;;;;23.49;22.38;97573.52;109847;1250;70721;-69
2022/05/01 13:31:46;;;;;;;;;;;;;;;23.38;21.80;97575.34;109799;1250;67919;-69
2022/05/01 13:34:16;;;;;;;;;;;;;;;23.18;21.76;97567.73;110011;1250;69395;-67
2022/05/01 13:36:45;;;;;;;;;;;;;;;22.96;22.71;97565.96;109855;1251;59768;-69
2022/05/01 13:39:14;;;;;;;;;;;;;;;22.89;24.31;97562.44;109928;1251;59696;-67
2022/05/01 13:44:54;;;;;;;;;;;;;;;22.57;24.57;97557.77;109626;1251;67892;-71